sensor_id;sensor_type;location;lat;lon;timestamp;pressure;altitude;pressure_sealevel;temperature;humidity
75656;BME280;64252;51.094;13.714;2022-10-26T00:00:27;100748.25;;;6.98;100.00
75656;BME280;64252;51.094;13.714;2022-10-26T00:02:54;100751.53;;;6.88;100.00
75656;BME280;64252;51.094;13.714;2022-10-26T00:05:20;100753.66;;;6.91;100.00
75656;BME280;64252;51.094;13.714;2022-10-26T00:07:47;100749.56;;;6.89;100.00
75656;BME280;64252;51.094;13.714;2022-10-26T00:10:12;100747.13;;;6.87;100.00
75656;BME280;64252;51.094;13.714;2022-10-26T00:12:38;100751.09;;;6.86;100.00
75656;BME280;64252;51.094;13.714;2022-10-26T00:15:05;100747.00;;;6.84;100.00
75656;BME280;64252;51.094;13.714;2022-10-26T00:17:30;100756.81;;;6.90;100.00
75656;BME280;64252;51.094;13.714;2022-10-26T00:19:56;100755.28;;;6.92;100.00
75656;BME280;64252;51.094;13.714;2022-10-26T00:22:22;100755.28;;;6.92;100.00
75656;BME280;64252;51.094;13.714;2022-10-26T00:24:48;100753.66;;;6.91;100.00
75656;BME280;64252;51.094;13.714;2022-10-26T00:27:13;100760.34;;;6.87;100.00
75656;BME280;64252;51.094;13.714;2022-10-26T00:29:39;100765.38;;;6.81;100.00
75656;BME280;64252;51.094;13.714;2022-10-26T00:32:04;100766.53;;;6.80;100.00
75656;BME280;64252;51.094;13.714;2022-10-26T00:34:31;100765.72;;;6.80;100.00
75656;BME280;64252;51.094;13.714;2022-10-26T00:36:56;100768.19;;;6.81;100.00
75656;BME280;64252;51.094;13.714;2022-10-26T00:39:22;100760.00;;;6.76;100.00
75656;BME280;64252;51.094;13.714;2022-10-26T00:41:47;100760.00;;;6.76;100.00
75656;BME280;64252;51.094;13.714;2022-10-26T00:49:38;100765.38;;;6.69;100.00
75656;BME280;64252;51.094;13.714;2022-10-26T00:52:05;100757.56;;;6.75;100.00
75656;BME280;64252;51.094;13.714;2022-10-26T00:54:31;100764.22;;;6.70;100.00
75656;BME280;64252;51.094;13.714;2022-10-26T00:56:57;100762.13;;;6.67;100.00
75656;BME280;64252;51.094;13.714;2022-10-26T00:59:23;100765.44;;;6.57;100.00
75656;BME280;64252;51.094;13.714;2022-10-26T01:01:50;100752.56;;;6.56;100.00
75656;BME280;64252;51.094;13.714;2022-10-26T01:04:17;100765.91;;;6.59;100.00
75656;BME280;64252;51.094;13.714;2022-10-26T01:06:43;100756.78;;;6.62;100.00
75656;BME280;64252;51.094;13.714;2022-10-26T01:09:10;100765.19;;;6.62;100.00
75656;BME280;64252;51.094;13.714;2022-10-26T01:11:36;100766.84;;;6.51;100.00
75656;BME280;64252;51.094;13.714;2022-10-26T01:14:05;100755.41;;;6.44;100.00
75656;BME280;64252;51.094;13.714;2022-10-26T01:17:07;100766.63;;;6.44;100.00
75656;BME280;64252;51.094;13.714;2022-10-26T01:22:46;100751.19;;;6.38;100.00
75656;BME280;64252;51.094;13.714;2022-10-26T01:25:48;100748.50;;;6.29;100.00
75656;BME280;64252;51.094;13.714;2022-10-26T01:28:53;100759.94;;;6.36;100.00
75656;BME280;64252;51.094;13.714;2022-10-26T01:31:42;100755.28;;;6.40;100.00
75656;BME280;64252;51.094;13.714;2022-10-26T01:34:13;100762.75;;;6.36;100.00
75656;BME280;64252;51.094;13.714;2022-10-26T01:36:46;100749.09;;;6.35;100.00
75656;BME280;64252;51.094;13.714;2022-10-26T01:39:19;100754.94;;;6.30;100.00
75656;BME280;64252;51.094;13.714;2022-10-26T01:41:49;100753.31;;;6.29;100.00
75656;BME280;64252;51.094;13.714;2022-10-26T01:44:28;100748.50;;;6.29;100.00
75656;BME280;64252;51.094;13.714;2022-10-26T01:46:57;100755.19;;;6.25;100.00
75656;BME280;64252;51.094;13.714;2022-10-26T01:49:27;100752.59;;;6.32;100.00
75656;BME280;64252;51.094;13.714;2022-10-26T01:51:53;100748.16;;;6.31;100.00
75656;BME280;64252;51.094;13.714;2022-10-26T01:54:19;100751.56;;;6.24;100.00
75656;BME280;64252;51.094;13.714;2022-10-26T01:56:48;100748.06;;;6.15;100.00
75656;BME280;64252;51.094;13.714;2022-10-26T02:07:33;100744.66;;;6.09;100.00
75656;BME280;64252;51.094;13.714;2022-10-26T02:10:22;100753.31;;;6.04;100.00
75656;BME280;64252;51.094;13.714;2022-10-26T02:16:09;100747.69;;;6.04;100.00
75656;BME280;64252;51.094;13.714;2022-10-26T02:19:16;100745.13;;;5.99;100.00
75656;BME280;64252;51.094;13.714;2022-10-26T02:21:40;100755.75;;;6.06;100.00
75656;BME280;64252;51.094;13.714;2022-10-26T02:24:11;100751.78;;;6.07;100.00
75656;BME280;64252;51.094;13.714;2022-10-26T02:26:39;100752.13;;;6.05;100.00
75656;BME280;64252;51.094;13.714;2022-10-26T02:29:09;100742.34;;;6.11;100.00
75656;BME280;64252;51.094;13.714;2022-10-26T02:31:40;100739.06;;;6.09;100.00
75656;BME280;64252;51.094;13.714;2022-10-26T02:34:09;100729.00;;;6.21;100.00
75656;BME280;64252;51.094;13.714;2022-10-26T02:36:40;100731.34;;;6.18;100.00
75656;BME280;64252;51.094;13.714;2022-10-26T02:39:07;100722.69;;;6.24;100.00
75656;BME280;64252;51.094;13.714;2022-10-26T02:41:34;100730.63;;;6.22;100.00
75656;BME280;64252;51.094;13.714;2022-10-26T02:46:38;100733.69;;;6.16;100.00
75656;BME280;64252;51.094;13.714;2022-10-26T02:49:04;100728.09;;;6.16;100.00
75656;BME280;64252;51.094;13.714;2022-10-26T02:51:46;100727.84;;;6.09;100.00
75656;BME280;64252;51.094;13.714;2022-10-26T02:54:25;100728.66;;;6.10;100.00
75656;BME280;64252;51.094;13.714;2022-10-26T02:56:53;100730.16;;;6.07;100.00
75656;BME280;64252;51.094;13.714;2022-10-26T02:59:22;100738.13;;;6.05;100.00
75656;BME280;64252;51.094;13.714;2022-10-26T03:01:51;100731.47;;;5.98;100.00
75656;BME280;64252;51.094;13.714;2022-10-26T03:04:17;100733.91;;;5.99;100.00
75656;BME280;64252;51.094;13.714;2022-10-26T03:06:51;100732.41;;;6.02;100.00
75656;BME280;64252;51.094;13.714;2022-10-26T03:09:17;100730.66;;;5.97;100.00
75656;BME280;64252;51.094;13.714;2022-10-26T03:11:43;100734.38;;;6.01;100.00
75656;BME280;64252;51.094;13.714;2022-10-26T03:14:08;100734.84;;;6.03;100.00
75656;BME280;64252;51.094;13.714;2022-10-26T03:16:34;100735.56;;;6.00;100.00
75656;BME280;64252;51.094;13.714;2022-10-26T03:18:59;100732.25;;;5.98;100.00
75656;BME280;64252;51.094;13.714;2022-10-26T03:21:25;100739.38;;;6.08;100.00
75656;BME280;64252;51.094;13.714;2022-10-26T03:23:50;100730.16;;;6.07;100.00
75656;BME280;64252;51.094;13.714;2022-10-26T03:26:16;100728.78;;;6.01;100.00
75656;BME280;64252;51.094;13.714;2022-10-26T03:28:42;100737.75;;;5.95;100.00
75656;BME280;64252;51.094;13.714;2022-10-26T03:31:07;100741.88;;;5.97;100.00
75656;BME280;64252;51.094;13.714;2022-10-26T03:33:33;100741.50;;;5.87;100.00
75656;BME280;64252;51.094;13.714;2022-10-26T03:35:58;100732.03;;;5.91;100.00
75656;BME280;64252;51.094;13.714;2022-10-26T03:38:24;100734.22;;;5.86;100.00
75656;BME280;64252;51.094;13.714;2022-10-26T03:40:49;100726.97;;;5.85;100.00
75656;BME280;64252;51.094;13.714;2022-10-26T03:43:15;100728.50;;;5.82;100.00
75656;BME280;64252;51.094;13.714;2022-10-26T03:45:40;100730.16;;;5.83;100.00
75656;BME280;64252;51.094;13.714;2022-10-26T03:48:06;100727.56;;;5.78;100.00
75656;BME280;64252;51.094;13.714;2022-10-26T03:50:31;100724.53;;;5.83;100.00
75656;BME280;64252;51.094;13.714;2022-10-26T03:52:57;100736.44;;;5.80;100.00
75656;BME280;64252;51.094;13.714;2022-10-26T03:55:22;100730.38;;;5.78;100.00
75656;BME280;64252;51.094;13.714;2022-10-26T03:57:48;100735.50;;;5.76;100.00
75656;BME280;64252;51.094;13.714;2022-10-26T04:00:16;100746.47;;;5.69;100.00
75656;BME280;64252;51.094;13.714;2022-10-26T04:02:43;100740.06;;;5.68;100.00
75656;BME280;64252;51.094;13.714;2022-10-26T04:05:11;100738.53;;;5.71;100.00
75656;BME280;64252;51.094;13.714;2022-10-26T04:07:36;100738.41;;;5.67;100.00
75656;BME280;64252;51.094;13.714;2022-10-26T04:10:03;100733.63;;;5.68;100.00
75656;BME280;64252;51.094;13.714;2022-10-26T04:12:29;100740.16;;;5.72;100.00
75656;BME280;64252;51.094;13.714;2022-10-26T04:14:54;100731.97;;;5.67;100.00
75656;BME280;64252;51.094;13.714;2022-10-26T04:17:23;100735.13;;;5.65;100.00
75656;BME280;64252;51.094;13.714;2022-10-26T04:19:49;100733.63;;;5.68;100.00
75656;BME280;64252;51.094;13.714;2022-10-26T04:22:15;100736.44;;;5.68;100.00
75656;BME280;64252;51.094;13.714;2022-10-26T04:24:40;100736.09;;;5.69;100.00
75656;BME280;64252;51.094;13.714;2022-10-26T04:27:05;100741.22;;;5.67;100.00
75656;BME280;64252;51.094;13.714;2022-10-26T04:29:31;100731.75;;;5.60;100.00
75656;BME280;64252;51.094;13.714;2022-10-26T04:31:56;100732.19;;;5.62;100.00
75656;BME280;64252;51.094;13.714;2022-10-26T04:34:22;100732.44;;;5.57;100.00
75656;BME280;64252;51.094;13.714;2022-10-26T04:36:47;100733.13;;;5.54;100.00
75656;BME280;64252;51.094;13.714;2022-10-26T04:39:13;100731.59;;;5.56;100.00
75656;BME280;64252;51.094;13.714;2022-10-26T04:41:39;100723.81;;;5.62;100.00
75656;BME280;64252;51.094;13.714;2022-10-26T04:44:04;100731.75;;;5.60;100.00
75656;BME280;64252;51.094;13.714;2022-10-26T04:46:29;100724.03;;;5.57;100.00
75656;BME280;64252;51.094;13.714;2022-10-26T04:48:56;100730.56;;;5.49;100.00
75656;BME280;64252;51.094;13.714;2022-10-26T04:51:21;100718.63;;;5.52;100.00
75656;BME280;64252;51.094;13.714;2022-10-26T04:53:47;100711.66;;;5.46;100.00
75656;BME280;64252;51.094;13.714;2022-10-26T04:56:12;100717.16;;;5.54;100.00
75656;BME280;64252;51.094;13.714;2022-10-26T04:58:41;100720.06;;;5.58;100.00
75656;BME280;64252;51.094;13.714;2022-10-26T05:01:07;100727.09;;;5.64;100.00
75656;BME280;64252;51.094;13.714;2022-10-26T05:03:33;100723.56;;;5.55;100.00
75656;BME280;64252;51.094;13.714;2022-10-26T05:05:58;100718.88;;;5.47;100.00
75656;BME280;64252;51.094;13.714;2022-10-26T05:08:26;100716.53;;;5.49;100.00
75656;BME280;64252;51.094;13.714;2022-10-26T05:10:54;100725.78;;;5.49;100.00
75656;BME280;64252;51.094;13.714;2022-10-26T05:13:19;100717.47;;;5.41;100.00
75656;BME280;64252;51.094;13.714;2022-10-26T05:15:46;100726.69;;;5.41;100.00
75656;BME280;64252;51.094;13.714;2022-10-26T05:18:11;100713.63;;;5.45;100.00
75656;BME280;64252;51.094;13.714;2022-10-26T05:20:37;100701.72;;;5.48;100.00
75656;BME280;64252;51.094;13.714;2022-10-26T05:23:05;100695.06;;;5.53;100.00
75656;BME280;64252;51.094;13.714;2022-10-26T05:25:34;100715.28;;;5.58;100.00
75656;BME280;64252;51.094;13.714;2022-10-26T05:28:01;100710.25;;;5.52;100.00
75656;BME280;64252;51.094;13.714;2022-10-26T05:30:28;100713.63;;;5.45;100.00
75656;BME280;64252;51.094;13.714;2022-10-26T05:32:58;100721.44;;;5.40;100.00
75656;BME280;64252;51.094;13.714;2022-10-26T05:35:25;100717.69;;;5.36;100.00
75656;BME280;64252;51.094;13.714;2022-10-26T05:37:51;100713.94;;;5.32;100.00
75656;BME280;64252;51.094;13.714;2022-10-26T05:40:20;100719.56;;;5.32;100.00
75656;BME280;64252;51.094;13.714;2022-10-26T05:42:46;100726.75;;;5.32;100.00
75656;BME280;64252;51.094;13.714;2022-10-26T05:45:12;100729.00;;;5.27;100.00
75656;BME280;64252;51.094;13.714;2022-10-26T05:47:42;100719.50;;;5.19;100.00
75656;BME280;64252;51.094;13.714;2022-10-26T05:50:10;100729.09;;;5.30;100.00
75656;BME280;64252;51.094;13.714;2022-10-26T05:52:44;100728.63;;;5.28;100.00
75656;BME280;64252;51.094;13.714;2022-10-26T05:55:12;100723.38;;;5.27;100.00
75656;BME280;64252;51.094;13.714;2022-10-26T05:57:38;100723.28;;;5.36;100.00
75656;BME280;64252;51.094;13.714;2022-10-26T06:00:16;100725.59;;;5.34;100.00
75656;BME280;64252;51.094;13.714;2022-10-26T06:03:03;100731.69;;;5.36;100.00
75656;BME280;64252;51.094;13.714;2022-10-26T06:05:36;100728.53;;;5.37;100.00
75656;BME280;64252;51.094;13.714;2022-10-26T06:08:07;100730.16;;;5.38;100.00
75656;BME280;64252;51.094;13.714;2022-10-26T06:10:33;100731.50;;;5.53;100.00
75656;BME280;64252;51.094;13.714;2022-10-26T06:12:59;100743.63;;;5.57;100.00
75656;BME280;64252;51.094;13.714;2022-10-26T06:15:28;100749.72;;;5.59;100.00
75656;BME280;64252;51.094;13.714;2022-10-26T06:18:05;100745.28;;;5.58;100.00
75656;BME280;64252;51.094;13.714;2022-10-26T06:31:25;100769.13;;;5.76;100.00
75656;BME280;64252;51.094;13.714;2022-10-26T06:33:57;100770.53;;;5.82;100.00
75656;BME280;64252;51.094;13.714;2022-10-26T06:36:25;100773.59;;;5.89;100.00
75656;BME280;64252;51.094;13.714;2022-10-26T06:39:06;100775.50;;;5.97;100.00
75656;BME280;64252;51.094;13.714;2022-10-26T06:41:33;100773.84;;;6.08;100.00
75656;BME280;64252;51.094;13.714;2022-10-26T06:43:59;100772.00;;;6.25;100.00
75656;BME280;64252;51.094;13.714;2022-10-26T06:49:01;100768.34;;;6.36;100.00
75656;BME280;64252;51.094;13.714;2022-10-26T06:51:35;100769.88;;;6.46;100.00
75656;BME280;64252;51.094;13.714;2022-10-26T06:54:17;100773.59;;;6.62;100.00
75656;BME280;64252;51.094;13.714;2022-10-26T06:56:47;100776.63;;;6.69;100.00
75656;BME280;64252;51.094;13.714;2022-10-26T06:59:43;100768.53;;;6.80;100.00
75656;BME280;64252;51.094;13.714;2022-10-26T07:02:11;100770.38;;;6.88;100.00
75656;BME280;64252;51.094;13.714;2022-10-26T07:04:37;100771.53;;;6.99;100.00
75656;BME280;64252;51.094;13.714;2022-10-26T07:07:03;100775.00;;;7.08;100.00
75656;BME280;64252;51.094;13.714;2022-10-26T07:09:28;100782.44;;;7.16;100.00
75656;BME280;64252;51.094;13.714;2022-10-26T07:11:54;100781.59;;;7.28;100.00
75656;BME280;64252;51.094;13.714;2022-10-26T07:14:19;100794.22;;;7.34;100.00
75656;BME280;64252;51.094;13.714;2022-10-26T07:16:45;100786.97;;;7.33;99.75
75656;BME280;64252;51.094;13.714;2022-10-26T07:19:11;100785.41;;;7.35;99.14
75656;BME280;64252;51.094;13.714;2022-10-26T07:21:36;100779.34;;;7.33;100.00
75656;BME280;64252;51.094;13.714;2022-10-26T07:24:02;100787.97;;;7.40;100.00
75656;BME280;64252;51.094;13.714;2022-10-26T07:26:28;100780.59;;;7.48;100.00
75656;BME280;64252;51.094;13.714;2022-10-26T07:28:53;100781.94;;;7.54;99.93
75656;BME280;64252;51.094;13.714;2022-10-26T07:31:19;100778.16;;;7.62;100.00
75656;BME280;64252;51.094;13.714;2022-10-26T07:33:45;100778.34;;;7.69;97.99
75656;BME280;64252;51.094;13.714;2022-10-26T07:36:11;100789.78;;;7.76;96.45
75656;BME280;64252;51.094;13.714;2022-10-26T07:38:37;100787.25;;;7.87;98.58
75656;BME280;64252;51.094;13.714;2022-10-26T07:41:04;100783.91;;;7.97;98.97
75656;BME280;64252;51.094;13.714;2022-10-26T07:43:29;100781.28;;;8.04;98.31
75656;BME280;64252;51.094;13.714;2022-10-26T07:45:55;100781.38;;;8.08;97.51
75656;BME280;64252;51.094;13.714;2022-10-26T07:48:21;100783.66;;;8.18;98.81
75656;BME280;64252;51.094;13.714;2022-10-26T07:50:46;100782.19;;;8.24;97.08
75656;BME280;64252;51.094;13.714;2022-10-26T07:53:12;100779.59;;;8.31;97.09
75656;BME280;64252;51.094;13.714;2022-10-26T07:55:37;100784.94;;;8.36;96.79
75656;BME280;64252;51.094;13.714;2022-10-26T07:58:03;100783.63;;;8.49;97.07
75656;BME280;64252;51.094;13.714;2022-10-26T08:00:28;100782.44;;;8.66;97.65
75656;BME280;64252;51.094;13.714;2022-10-26T08:02:55;100781.78;;;8.72;96.12
75656;BME280;64252;51.094;13.714;2022-10-26T08:05:20;100786.19;;;8.89;96.86
75656;BME280;64252;51.094;13.714;2022-10-26T08:07:46;100784.19;;;9.09;96.28
75656;BME280;64252;51.094;13.714;2022-10-26T08:10:12;100780.13;;;9.25;95.20
75656;BME280;64252;51.094;13.714;2022-10-26T08:12:39;100784.06;;;9.40;95.33
75656;BME280;64252;51.094;13.714;2022-10-26T08:15:05;100778.50;;;9.44;93.26
75656;BME280;64252;51.094;13.714;2022-10-26T08:17:30;100777.84;;;9.50;95.91
75656;BME280;64252;51.094;13.714;2022-10-26T08:19:56;100784.34;;;9.54;95.12
75656;BME280;64252;51.094;13.714;2022-10-26T08:22:22;100778.41;;;9.59;95.57
75656;BME280;64252;51.094;13.714;2022-10-26T08:24:47;100787.44;;;9.68;95.98
75656;BME280;64252;51.094;13.714;2022-10-26T08:27:13;100780.00;;;9.80;94.45
75656;BME280;64252;51.094;13.714;2022-10-26T08:29:40;100781.88;;;9.95;92.34
75656;BME280;64252;51.094;13.714;2022-10-26T08:32:05;100768.53;;;10.14;93.48
75656;BME280;64252;51.094;13.714;2022-10-26T08:34:31;100775.47;;;10.40;91.73
75656;BME280;64252;51.094;13.714;2022-10-26T08:36:56;100776.22;;;10.63;93.40
75656;BME280;64252;51.094;13.714;2022-10-26T08:39:23;100772.03;;;10.80;90.15
75656;BME280;64252;51.094;13.714;2022-10-26T08:41:50;100775.50;;;10.96;89.60
75656;BME280;64252;51.094;13.714;2022-10-26T08:44:26;100766.09;;;11.18;89.18
75656;BME280;64252;51.094;13.714;2022-10-26T08:46:57;100767.06;;;11.29;85.86
75656;BME280;64252;51.094;13.714;2022-10-26T08:49:45;100766.78;;;11.41;86.58
75656;BME280;64252;51.094;13.714;2022-10-26T08:52:16;100767.31;;;11.51;84.21
75656;BME280;64252;51.094;13.714;2022-10-26T08:54:51;100765.09;;;11.67;83.92
75656;BME280;64252;51.094;13.714;2022-10-26T08:57:25;100768.00;;;11.74;82.86
75656;BME280;64252;51.094;13.714;2022-10-26T09:00:27;100760.59;;;11.99;82.44
75656;BME280;64252;51.094;13.714;2022-10-26T09:02:52;100766.91;;;12.29;80.79
75656;BME280;64252;51.094;13.714;2022-10-26T09:05:24;100772.28;;;12.42;81.05
75656;BME280;64252;51.094;13.714;2022-10-26T09:10:40;100762.72;;;12.57;80.93
75656;BME280;64252;51.094;13.714;2022-10-26T09:24:12;100753.69;;;13.06;78.22
75656;BME280;64252;51.094;13.714;2022-10-26T09:26:55;100758.69;;;13.27;78.57
75656;BME280;64252;51.094;13.714;2022-10-26T09:29:38;100759.53;;;13.38;77.57
75656;BME280;64252;51.094;13.714;2022-10-26T09:32:33;100760.78;;;13.47;77.83
75656;BME280;64252;51.094;13.714;2022-10-26T09:34:58;100763.28;;;13.67;77.22
75656;BME280;64252;51.094;13.714;2022-10-26T09:37:33;100756.00;;;13.76;76.70
75656;BME280;64252;51.094;13.714;2022-10-26T09:43:17;100747.91;;;13.78;76.86
75656;BME280;64252;51.094;13.714;2022-10-26T09:45:48;100752.41;;;13.97;77.27
75656;BME280;64252;51.094;13.714;2022-10-26T09:50:44;100763.38;;;14.20;76.50
75656;BME280;64252;51.094;13.714;2022-10-26T09:53:45;100764.59;;;14.12;76.28
75656;BME280;64252;51.094;13.714;2022-10-26T09:56:12;100756.88;;;14.16;76.60
75656;BME280;64252;51.094;13.714;2022-10-26T09:58:44;100759.31;;;14.21;76.00
75656;BME280;64252;51.094;13.714;2022-10-26T10:06:38;100762.59;;;14.26;75.41
75656;BME280;64252;51.094;13.714;2022-10-26T10:09:14;100759.72;;;14.16;76.02
75656;BME280;64252;51.094;13.714;2022-10-26T10:12:00;100762.56;;;14.23;76.03
75656;BME280;64252;51.094;13.714;2022-10-26T10:14:30;100761.75;;;14.26;76.16
75656;BME280;64252;51.094;13.714;2022-10-26T10:16:59;100760.13;;;14.32;75.95
75656;BME280;64252;51.094;13.714;2022-10-26T10:19:28;100758.16;;;14.36;76.71
75656;BME280;64252;51.094;13.714;2022-10-26T10:21:57;100755.31;;;14.36;76.13
75656;BME280;64252;51.094;13.714;2022-10-26T10:29:39;100753.69;;;14.49;75.50
75656;BME280;64252;51.094;13.714;2022-10-26T10:32:13;100753.28;;;14.54;74.88
75656;BME280;64252;51.094;13.714;2022-10-26T10:34:39;100746.75;;;14.57;75.47
75656;BME280;64252;51.094;13.714;2022-10-26T10:37:05;100754.88;;;14.59;75.46
75656;BME280;64252;51.094;13.714;2022-10-26T10:39:37;100747.56;;;14.68;75.50
75656;BME280;64252;51.094;13.714;2022-10-26T10:42:10;100751.97;;;14.90;75.06
75656;BME280;64252;51.094;13.714;2022-10-26T10:44:38;100749.06;;;15.12;73.75
75656;BME280;64252;51.094;13.714;2022-10-26T10:47:05;100745.41;;;15.18;73.61
75656;BME280;64252;51.094;13.714;2022-10-26T10:49:32;100750.66;;;15.27;73.86
75656;BME280;64252;51.094;13.714;2022-10-26T10:51:58;100742.47;;;15.36;72.57
75656;BME280;64252;51.094;13.714;2022-10-26T10:54:38;100740.00;;;15.49;71.72
75656;BME280;64252;51.094;13.714;2022-10-26T11:00:18;100739.41;;;15.86;70.93
75656;BME280;64252;51.094;13.714;2022-10-26T11:03:14;100738.47;;;16.03;71.52
75656;BME280;64252;51.094;13.714;2022-10-26T11:06:02;100732.66;;;16.17;70.41
75656;BME280;64252;51.094;13.714;2022-10-26T11:08:59;100738.19;;;16.38;69.85
75656;BME280;64252;51.094;13.714;2022-10-26T11:11:36;100720.47;;;16.57;68.35
75656;BME280;64252;51.094;13.714;2022-10-26T11:14:40;100726.88;;;16.76;67.80
75656;BME280;64252;51.094;13.714;2022-10-26T11:17:16;100727.34;;;16.71;67.17
75656;BME280;64252;51.094;13.714;2022-10-26T11:19:52;100727.28;;;16.74;66.92
75656;BME280;64252;51.094;13.714;2022-10-26T11:22:23;100719.84;;;16.84;66.27
75656;BME280;64252;51.094;13.714;2022-10-26T11:25:19;100717.22;;;17.00;66.87
75656;BME280;64252;51.094;13.714;2022-10-26T11:28:12;100717.19;;;17.03;66.34
75656;BME280;64252;51.094;13.714;2022-10-26T11:30:45;100722.03;;;17.06;67.30
75656;BME280;64252;51.094;13.714;2022-10-26T11:33:26;100722.75;;;17.14;66.26
75656;BME280;64252;51.094;13.714;2022-10-26T11:36:02;100718.59;;;17.22;66.49
75656;BME280;64252;51.094;13.714;2022-10-26T11:38:52;100717.19;;;17.37;65.04
75656;BME280;64252;51.094;13.714;2022-10-26T11:43:51;100721.84;;;17.54;64.32
75656;BME280;64252;51.094;13.714;2022-10-26T11:46:23;100714.06;;;17.59;63.42
75656;BME280;64252;51.094;13.714;2022-10-26T11:54:43;100728.41;;;17.82;63.80
75656;BME280;64252;51.094;13.714;2022-10-26T11:57:13;100732.97;;;17.76;64.32
75656;BME280;64252;51.094;13.714;2022-10-26T11:59:44;100723.66;;;17.72;64.09
75656;BME280;64252;51.094;13.714;2022-10-26T12:02:19;100727.44;;;17.65;64.04
75656;BME280;64252;51.094;13.714;2022-10-26T12:04:51;100729.50;;;17.65;65.34
75656;BME280;64252;51.094;13.714;2022-10-26T12:07:25;100731.19;;;17.59;65.29
75656;BME280;64252;51.094;13.714;2022-10-26T12:09:53;100728.56;;;17.41;64.96
75656;BME280;64252;51.094;13.714;2022-10-26T12:12:28;100733.31;;;17.51;65.17
75656;BME280;64252;51.094;13.714;2022-10-26T12:15:34;100727.22;;;17.49;64.81
75656;BME280;64252;51.094;13.714;2022-10-26T12:23:28;100731.13;;;17.62;64.63
75656;BME280;64252;51.094;13.714;2022-10-26T12:28:48;100732.84;;;17.56;64.66
75656;BME280;64252;51.094;13.714;2022-10-26T12:34:10;100731.63;;;17.23;65.03
75656;BME280;64252;51.094;13.714;2022-10-26T12:37:09;100730.19;;;17.04;65.41
75656;BME280;64252;51.094;13.714;2022-10-26T12:39:37;100734.63;;;16.72;67.77
75656;BME280;64252;51.094;13.714;2022-10-26T12:50:22;100734.50;;;16.41;68.44
75656;BME280;64252;51.094;13.714;2022-10-26T12:52:56;100724.28;;;16.47;69.20
75656;BME280;64252;51.094;13.714;2022-10-26T13:03:34;100730.91;;;16.34;69.34
75656;BME280;64252;51.094;13.714;2022-10-26T13:08:54;100733.56;;;16.03;71.21
75656;BME280;64252;51.094;13.714;2022-10-26T13:11:27;100734.44;;;15.97;71.45
75656;BME280;64252;51.094;13.714;2022-10-26T13:13:56;100735.34;;;15.83;70.88
75656;BME280;64252;51.094;13.714;2022-10-26T13:16:25;100737.06;;;15.70;71.70
75656;BME280;64252;51.094;13.714;2022-10-26T13:18:52;100741.19;;;15.58;72.33
75656;BME280;64252;51.094;13.714;2022-10-26T13:21:19;100737.94;;;15.49;73.31
75656;BME280;64252;51.094;13.714;2022-10-26T13:23:57;100743.25;;;15.47;73.37
75656;BME280;64252;51.094;13.714;2022-10-26T13:26:30;100744.47;;;15.53;73.86
75656;BME280;64252;51.094;13.714;2022-10-26T13:29:02;100736.75;;;15.54;73.43
75656;BME280;64252;51.094;13.714;2022-10-26T13:33:59;100738.34;;;15.55;73.44
75656;BME280;64252;51.094;13.714;2022-10-26T13:36:35;100741.97;;;15.66;72.89
75656;BME280;64252;51.094;13.714;2022-10-26T13:39:16;100737.44;;;15.75;72.51
75656;BME280;64252;51.094;13.714;2022-10-26T13:41:44;100736.22;;;15.76;72.80
75656;BME280;64252;51.094;13.714;2022-10-26T13:44:25;100742.75;;;15.70;71.63
75656;BME280;64252;51.094;13.714;2022-10-26T13:47:15;100749.19;;;15.77;71.57
75656;BME280;64252;51.094;13.714;2022-10-26T13:49:46;100738.97;;;15.91;72.56
75656;BME280;64252;51.094;13.714;2022-10-26T13:52:24;100748.91;;;16.23;70.11
75656;BME280;64252;51.094;13.714;2022-10-26T13:54:59;100743.16;;;16.27;69.40
75656;BME280;64252;51.094;13.714;2022-10-26T13:59:52;100742.38;;;16.23;71.13
75656;BME280;64252;51.094;13.714;2022-10-26T14:02:25;100748.91;;;16.20;70.07
75656;BME280;64252;51.094;13.714;2022-10-26T14:04:53;100744.47;;;16.15;69.71
75656;BME280;64252;51.094;13.714;2022-10-26T14:07:28;100743.38;;;15.99;70.75
75656;BME280;64252;51.094;13.714;2022-10-26T14:09:56;100745.81;;;15.97;71.17
75656;BME280;64252;51.094;13.714;2022-10-26T14:12:23;100748.31;;;15.88;72.91
75656;BME280;64252;51.094;13.714;2022-10-26T14:14:51;100745.97;;;15.75;71.90
75656;BME280;64252;51.094;13.714;2022-10-26T14:17:19;100748.41;;;15.77;71.92
75656;BME280;64252;51.094;13.714;2022-10-26T14:20:21;100741.16;;;15.65;71.80
75656;BME280;64252;51.094;13.714;2022-10-26T14:22:48;100743.25;;;15.47;72.57
75656;BME280;64252;51.094;13.714;2022-10-26T14:27:44;100742.91;;;15.31;73.80
75656;BME280;64252;51.094;13.714;2022-10-26T14:33:00;100746.16;;;15.26;74.57
75656;BME280;64252;51.094;13.714;2022-10-26T14:35:32;100751.88;;;15.22;74.43
75656;BME280;64252;51.094;13.714;2022-10-26T14:38:02;100747.03;;;15.16;75.25
75656;BME280;64252;51.094;13.714;2022-10-26T14:40:33;100751.53;;;15.10;75.35
75656;BME280;64252;51.094;13.714;2022-10-26T14:43:00;100756.81;;;15.11;75.77
75656;BME280;64252;51.094;13.714;2022-10-26T14:47:52;100763.25;;;15.26;74.83
75656;BME280;64252;51.094;13.714;2022-10-26T14:50:20;100767.28;;;15.39;75.40
75656;BME280;64252;51.094;13.714;2022-10-26T14:52:53;100772.09;;;15.49;75.11
75656;BME280;64252;51.094;13.714;2022-10-26T14:55:20;100775.31;;;15.65;73.86
75656;BME280;64252;51.094;13.714;2022-10-26T14:57:48;100782.59;;;15.73;72.98